Flight Track Log - Related Links

Times and Time Zones

All times are in EDT time to prevent confusion due to time zone crossing. See the AFL150 flight status page for this flight to view local times or setup timezone preferences in your user account.

Time Position Orientation Groundspeed Altitude Reporting Facility
EDT Latitude Longitude Course Direction KTS MPH feet Rate Location/Type
Fri 05:40:00 AM 56.0717 36.9552 307° West  Level Estimated
Fri 05:41:00 AM 56.1428 36.7822 306° West  Level Estimated
Fri 05:42:00 AM 56.2136 36.6086 306° West  Level Estimated
Fri 05:43:00 AM 56.2841 36.4344 306° West  Level Estimated
Fri 05:44:00 AM 56.3545 36.2595 306° West  Level Estimated
Fri 05:45:00 AM 56.4245 36.0840 306° West  Level Estimated
Fri 05:46:00 AM 56.4943 35.9078 306° West  Level Estimated
Fri 05:47:00 AM 56.5639 35.7310 306° West  Level Estimated
Fri 05:48:00 AM 56.6332 35.5535 305° West  Level Estimated
Fri 05:49:00 AM 56.7023 35.3754 305° West  Level Estimated
Fri 05:50:00 AM 56.7711 35.1966 305° West  Level Estimated
Fri 05:51:00 AM 56.8396 35.0172 305° West  Level Estimated
Fri 05:52:00 AM 56.9079 34.8371 305° West  Level Estimated
Fri 05:53:00 AM 56.9760 34.6563 305° West  Level Estimated
Fri 05:54:00 AM 57.0437 34.4749 305° West  Level Estimated
Fri 05:55:00 AM 57.1112 34.2929 304° West  Level Estimated
Fri 05:56:00 AM 57.1785 34.1101 304° West  Level Estimated
Fri 05:57:00 AM 57.2455 33.9267 304° West  Level Estimated
Fri 05:58:00 AM 57.3122 33.7427 304° West  Level Estimated
Fri 05:59:00 AM 57.3786 33.5579 304° West  Level Estimated
Fri 06:00:00 AM 57.4448 33.3725 304° West  Level Estimated
Fri 06:01:00 AM 57.5107 33.1865 303° West  Level Estimated
Fri 06:02:00 AM 57.5763 32.9997 303° West  Level Estimated
Fri 06:03:00 AM 57.6416 32.8123 303° West  Level Estimated
Fri 06:04:00 AM 57.7067 32.6242 303° West  Level Estimated
Fri 06:05:00 AM 57.7715 32.4354 303° West  Level Estimated
Fri 06:06:00 AM 57.8360 32.2460 303° West  Level Estimated
Fri 06:07:00 AM 57.9002 32.0559 302° West  Level Estimated
Fri 06:08:00 AM 57.9641 31.8651 302° West  Level Estimated
Fri 06:09:00 AM 58.0278 31.6736 302° West  Level Estimated
Fri 06:10:00 AM 58.0911 31.4814 302° West  Level Estimated
Fri 06:11:00 AM 58.1542 31.2886 302° West  Level Estimated
Fri 06:12:00 AM 58.2170 31.0951 302° West  Level Estimated
Fri 06:13:00 AM 58.2795 30.9008 302° West  Level Estimated
Fri 06:14:00 AM 58.3417 30.7059 301° West  Level Estimated
Fri 06:15:00 AM 58.4036 30.5103 301° West  Level Estimated
Fri 06:16:00 AM 58.4651 30.3141 301° West  Level Estimated
Fri 06:17:00 AM 58.5264 30.1171 301° West  Level Estimated
Fri 06:18:00 AM 58.5874 29.9195 301° West  Level Estimated
Fri 06:19:00 AM 58.6481 29.7211 301° West  Level Estimated
Fri 06:20:00 AM 58.7085 29.5221 300° West  Level Estimated
Fri 06:21:00 AM 58.7686 29.3224 300° West  Level Estimated
Fri 06:22:00 AM 58.8283 29.1220 300° West  Level Estimated
Fri 06:23:00 AM 58.8878 28.9209 300° West  Level Estimated
Fri 06:24:00 AM 58.9469 28.7191 300° West  Level Estimated
Fri 06:25:00 AM 59.0057 28.5167 299° West  Level Estimated
Fri 06:26:00 AM 59.0642 28.3135 299° West  Level Estimated
Fri 06:27:00 AM 59.1224 28.1096 299° West  Level Estimated
Fri 06:28:00 AM 59.1803 27.9051 299° West  Level Estimated
Fri 06:29:00 AM 59.2378 27.6999 299° West  Level Estimated
Fri 06:30:00 AM 59.2951 27.4939 299° West  Level Estimated
Fri 06:31:00 AM 59.3519 27.2873 298° West  Level Estimated
Fri 06:32:00 AM 59.4085 27.0800 298° West  Level Estimated
Fri 06:33:00 AM 59.4647 26.8720 298° West  Level Estimated
Fri 06:34:00 AM 59.5206 26.6633 298° West  Level Estimated
Fri 06:35:00 AM 59.5762 26.4539 298° West  Level Estimated
Fri 06:36:00 AM 59.6314 26.2438 298° West  Level Estimated
Fri 06:37:00 AM 59.6863 26.0331 297° West  Level Estimated
Fri 06:38:00 AM 59.7409 25.8216 297° West  Level Estimated
Fri 06:39:00 AM 59.7951 25.6094 297° West  Level Estimated
Fri 06:40:00 AM 59.8490 25.3966 297° West  Level Estimated
Fri 06:41:00 AM 59.9025 25.1831 297° West  Level Estimated
Fri 06:42:00 AM 59.9557 24.9689 296° West  Level Estimated
Fri 06:43:00 AM 60.0085 24.7540 296° West  Level Estimated
Fri 06:44:00 AM 60.0610 24.5384 296° West  Level Estimated
Fri 06:45:00 AM 60.1132 24.3221 296° West  Level Estimated
Fri 06:46:00 AM 60.1649 24.1052 296° West  Level Estimated
Fri 06:47:00 AM 60.2164 23.8875 296° West  Level Estimated
Fri 06:48:00 AM 60.2674 23.6692 295° West  Level Estimated
Fri 06:49:00 AM 60.3181 23.4502 295° West  Level Estimated
Fri 06:50:00 AM 60.3685 23.2305 295° West  Level Estimated
Fri 06:51:00 AM 60.4185 23.0102 295° West  Level Estimated
Fri 06:52:00 AM 60.4681 22.7892 295° West  Level Estimated
Fri 06:53:00 AM 60.5173 22.5674 294° West  Level Estimated
Fri 06:54:00 AM 60.5662 22.3451 294° West  Level Estimated
Fri 06:55:00 AM 60.6147 22.1220 294° West  Level Estimated
Fri 06:56:00 AM 60.6629 21.8983 294° West  Level Estimated
Fri 06:57:00 AM 60.7106 21.6739 294° West  Level Estimated
Fri 06:58:00 AM 60.7580 21.4489 293° West  Level Estimated
Fri 06:59:00 AM 60.8050 21.2232 293° West  Level Estimated
Fri 07:00:00 AM 60.8517 20.9968 293° West  Level Estimated
Fri 07:01:00 AM 60.8979 20.7698 293° West  Level Estimated
Fri 07:02:00 AM 60.9438 20.5421 293° West  Level Estimated
Fri 07:03:00 AM 60.9893 20.3137 292° West  Level Estimated
Fri 07:04:00 AM 61.0344 20.0847 292° West  Level Estimated
Fri 07:05:00 AM 61.0791 19.8551 292° West  Level Estimated
Fri 07:06:00 AM 61.1234 19.6248 292° West  Level Estimated
Fri 07:07:00 AM 61.1673 19.3939 292° West  Level Estimated
Fri 07:08:00 AM 61.2108 19.1623 291° West  Level Estimated
Fri 07:09:00 AM 61.2540 18.9301 291° West  Level Estimated
Fri 07:10:00 AM 61.2967 18.6972 291° West  Level Estimated
Fri 07:11:00 AM 61.3390 18.4638 291° West  Level Estimated
Fri 07:12:00 AM 61.3810 18.2296 291° West  Level Estimated
Fri 07:13:00 AM 61.4225 17.9949 290° West  Level Estimated
Fri 07:14:00 AM 61.4636 17.7595 290° West  Level Estimated
Fri 07:15:00 AM 61.5043 17.5236 290° West  Level Estimated
Fri 07:16:00 AM 61.5447 17.2870 290° West  Level Estimated
Fri 07:17:00 AM 61.5846 17.0498 290° West  Level Estimated
Fri 07:18:00 AM 61.6240 16.8120 289° West  Level Estimated
Fri 07:19:00 AM 61.6631 16.5735 289° West  Level Estimated
Fri 07:20:00 AM 61.7018 16.3345 289° West  Level Estimated
Fri 07:21:00 AM 61.7400 16.0949 289° West  Level Estimated
Fri 07:22:00 AM 61.7778 15.8547 289° West  Level Estimated
Fri 07:23:00 AM 61.8152 15.6139 288° West  Level Estimated
Fri 07:24:00 AM 61.8522 15.3725 288° West  Level Estimated
Fri 07:25:00 AM 61.8888 15.1306 288° West  Level Estimated
Fri 07:26:00 AM 61.9249 14.8880 288° West  Level Estimated
Fri 07:27:00 AM 61.9606 14.6449 287° West  Level Estimated
Fri 07:28:00 AM 61.9959 14.4012 287° West  Level Estimated
Fri 07:29:00 AM 62.0307 14.1570 287° West  Level Estimated
Fri 07:30:00 AM 62.0651 13.9122 287° West  Level Estimated
Fri 07:31:00 AM 62.0991 13.6669 287° West  Level Estimated
Fri 07:32:00 AM 62.1326 13.4210 286° West  Level Estimated
Fri 07:33:00 AM 62.1657 13.1746 286° West  Level Estimated
Fri 07:34:00 AM 62.1984 12.9276 286° West  Level Estimated
Fri 07:35:00 AM 62.2306 12.6801 286° West  Level Estimated
Fri 07:36:00 AM 62.2624 12.4321 285° West  Level Estimated
Fri 07:37:00 AM 62.2938 12.1835 285° West  Level Estimated
Fri 07:38:00 AM 62.3246 11.9345 285° West  Level Estimated
Fri 07:39:00 AM 62.3551 11.6849 285° West  Level Estimated
Fri 07:40:00 AM 62.3851 11.4348 285° West  Level Estimated
Fri 07:41:00 AM 62.4146 11.1843 284° West  Level Estimated
Fri 07:42:00 AM 62.4437 10.9332 284° West  Level Estimated
Fri 07:43:00 AM 62.4724 10.6817 284° West  Level Estimated
Fri 07:44:00 AM 62.5006 10.4297 284° West  Level Estimated
Fri 07:45:00 AM 62.5283 10.1771 284° West  Level Estimated
Fri 07:46:00 AM 62.5556 9.9242 283° West  Level Estimated
Fri 07:47:00 AM 62.5825 9.6708 283° West  Level Estimated
Fri 07:48:00 AM 62.6088 9.4169 283° West  Level Estimated
Fri 07:49:00 AM 62.6347 9.1626 283° West  Level Estimated
Fri 07:50:00 AM 62.6602 8.9078 282° West  Level Estimated
Fri 07:51:00 AM 62.6852 8.6526 282° West  Level Estimated
Fri 07:52:00 AM 62.7097 8.3970 282° West  Level Estimated
Fri 07:53:00 AM 62.7337 8.1409 282° West  Level Estimated
Fri 07:54:00 AM 62.7573 7.8845 281° West  Level Estimated
Fri 07:55:00 AM 62.7804 7.6276 281° West  Level Estimated
Fri 07:56:00 AM 62.8031 7.3703 281° West  Level Estimated
Fri 07:57:00 AM 62.8253 7.1127 281° West  Level Estimated
Fri 07:58:00 AM 62.8470 6.8546 281° West  Level Estimated
Fri 07:59:00 AM 62.8682 6.5962 280° West  Level Estimated
Fri 08:00:00 AM 62.8890 6.3374 280° West  Level Estimated
Fri 08:01:00 AM 62.9092 6.0783 280° West  Level Estimated
Fri 08:02:00 AM 62.9291 5.8188 280° West  Level Estimated
Fri 08:03:00 AM 62.9484 5.5589 279° West  Level Estimated
Fri 08:04:00 AM 62.9673 5.2987 279° West  Level Estimated
Fri 08:05:00 AM 62.9856 5.0382 279° West  Level Estimated
Fri 08:06:00 AM 63.0035 4.7773 279° West  Level Estimated
Fri 08:07:00 AM 63.0209 4.5162 278° West  Level Estimated
Fri 08:08:00 AM 63.0379 4.2547 278° West  Level Estimated
Fri 08:09:00 AM 63.0543 3.9929 278° West  Level Estimated
Fri 08:10:00 AM 63.0703 3.7309 278° West  Level Estimated
Fri 08:11:00 AM 63.0858 3.4685 278° West  Level Estimated
Fri 08:12:00 AM 63.1008 3.2059 277° West  Level Estimated
Fri 08:13:00 AM 63.1153 2.9430 277° West  Level Estimated
Fri 08:14:00 AM 63.1293 2.6799 277° West  Level Estimated
Fri 08:15:00 AM 63.1428 2.4165 277° West  Level Estimated
Fri 08:16:00 AM 63.1559 2.1528 276° West  Level Estimated
Fri 08:17:00 AM 63.1685 1.8889 276° West  Level Estimated
Fri 08:18:00 AM 63.1805 1.6249 276° West  Level Estimated
Fri 08:19:00 AM 63.1921 1.3605 276° West  Level Estimated
Fri 08:20:00 AM 63.2032 1.0960 275° West  Level Estimated
Fri 08:21:00 AM 63.2138 0.8313 275° West  Level Estimated
Fri 08:22:00 AM 63.2239 0.5664 275° West  Level Estimated
Fri 08:23:00 AM 63.2335 0.3013 275° West  Level Estimated
Fri 08:24:00 AM 63.2426 0.0360 274° West  Level Estimated
Fri 08:25:00 AM 63.2512 -0.2294 274° West  Level Estimated
Fri 08:26:00 AM 63.2594 -0.4949 274° West  Level Estimated
Fri 08:27:00 AM 63.2670 -0.7607 274° West  Level Estimated
Fri 08:28:00 AM 63.2741 -1.0265 274° West  Level Estimated
Fri 08:29:00 AM 63.2808 -1.2925 273° West  Level Estimated
Fri 08:30:00 AM 63.2869 -1.5586 273° West  Level Estimated
Fri 08:31:00 AM 63.2926 -1.8248 273° West  Level Estimated
Fri 08:32:00 AM 63.2977 -2.0911 273° West  Level Estimated
Fri 08:33:00 AM 63.3024 -2.3575 272° West  Level Estimated
Fri 08:34:00 AM 63.3065 -2.6240 272° West  Level Estimated
Fri 08:35:00 AM 63.3102 -2.8906 272° West  Level Estimated
Fri 08:36:00 AM 63.3134 -3.1572 272° West  Level Estimated
Fri 08:37:00 AM 63.3160 -3.4239 271° West  Level Estimated
Fri 08:38:00 AM 63.3182 -3.6906 271° West  Level Estimated
Fri 08:39:00 AM 63.3199 -3.9573 271° West  Level Estimated
Fri 08:40:00 AM 63.3210 -4.2241 271° West  Level Estimated
Fri 08:41:00 AM 63.3217 -4.4909 270° West  Level Estimated
Fri 08:42:00 AM 63.3219 -4.7577 270° West  Level Estimated
Fri 08:43:00 AM 63.3216 -5.0245 270° West  Level Estimated
Fri 08:44:00 AM 63.3208 -5.2913 270° West  Level Estimated
Fri 08:45:00 AM 63.3194 -5.5581 269° West  Level Estimated
Fri 08:46:00 AM 63.3176 -5.8248 269° West  Level Estimated
Fri 08:47:00 AM 63.3153 -6.0915 269° West  Level Estimated
Fri 08:48:00 AM 63.3125 -6.3582 269° West  Level Estimated
Fri 08:49:00 AM 63.3092 -6.6248 269° West  Level Estimated
Fri 08:50:00 AM 63.3054 -6.8913 268° West  Level Estimated
Fri 08:51:00 AM 63.3010 -7.1578 268° West  Level Estimated
Fri 08:52:00 AM 63.2962 -7.4242 268° West  Level Estimated
Fri 08:53:00 AM 63.2909 -7.6904 268° West  Level Estimated
Fri 08:54:00 AM 63.2851 -7.9566 267° West  Level Estimated
Fri 08:55:00 AM 63.2788 -8.2227 267° West  Level Estimated
Fri 08:56:00 AM 63.2720 -8.4886 267° West  Level Estimated
Fri 08:57:00 AM 63.2648 -8.7544 267° West  Level Estimated
Fri 08:58:00 AM 63.2570 -9.0201 266° West  Level Estimated
Fri 08:59:00 AM 63.2487 -9.2857 266° West  Level Estimated
Fri 09:00:00 AM 63.2399 -9.5510 266° West  Level Estimated
Fri 09:01:00 AM 63.2307 -9.8162 266° West  Level Estimated
Fri 09:02:00 AM 63.2209 -10.0813 265° West  Level Estimated
Fri 09:03:00 AM 63.2106 -10.3461 265° West  Level Estimated
Fri 09:04:00 AM 63.1999 -10.6108 265° West  Level Estimated
Fri 09:05:00 AM 63.1887 -10.8752 265° West  Level Estimated
Fri 09:06:00 AM 63.1769 -11.1395 264° West  Level Estimated
Fri 09:07:00 AM 63.1647 -11.4035 264° West  Level Estimated
Fri 09:08:00 AM 63.1520 -11.6673 264° West  Level Estimated
Fri 09:09:00 AM 63.1388 -11.9309 264° West  Level Estimated
Fri 09:10:00 AM 63.1251 -12.1942 264° West  Level Estimated
Fri 09:11:00 AM 63.1110 -12.4573 263° West  Level Estimated
Fri 09:12:00 AM 63.0963 -12.7201 263° West  Level Estimated
Fri 09:13:00 AM 63.0812 -12.9826 263° West  Level Estimated
Fri 09:14:00 AM 63.0655 -13.2449 263° West  Level Estimated
Fri 09:15:00 AM 63.0494 -13.5069 262° West  Level Estimated
Fri 09:16:00 AM 63.0328 -13.7686 262° West  Level Estimated
Fri 09:17:00 AM 63.0157 -14.0299 262° West  Level Estimated
Fri 09:18:00 AM 62.9982 -14.2910 262° West  Level Estimated
Fri 09:19:00 AM 62.9801 -14.5518 261° West  Level Estimated
Fri 09:20:00 AM 62.9616 -14.8122 261° West  Level Estimated
Fri 09:21:00 AM 62.9426 -15.0723 261° West  Level Estimated
Fri 09:22:00 AM 62.9231 -15.3320 261° West  Level Estimated
Fri 09:23:00 AM 62.9032 -15.5914 261° West  Level Estimated
Fri 09:24:00 AM 62.8828 -15.8505 260° West  Level Estimated
Fri 09:25:00 AM 62.8618 -16.1091 260° West  Level Estimated
Fri 09:26:00 AM 62.8405 -16.3675 260° West  Level Estimated
Fri 09:27:00 AM 62.8186 -16.6254 260° West  Level Estimated
Fri 09:28:00 AM 62.7963 -16.8829 259° West  Level Estimated
Fri 09:29:00 AM 62.7735 -17.1401 259° West  Level Estimated
Fri 09:30:00 AM 62.7502 -17.3968 259° West  Level Estimated
Fri 09:31:00 AM 62.7265 -17.6532 259° West  Level Estimated
Fri 09:32:00 AM 62.7023 -17.9091 258° West  Level Estimated
Fri 09:33:00 AM 62.6777 -18.1646 258° West  Level Estimated
Fri 09:34:00 AM 62.6525 -18.4196 258° West  Level Estimated
Fri 09:35:00 AM 62.6269 -18.6743 258° West  Level Estimated
Fri 09:36:00 AM 62.6009 -18.9285 258° West  Level Estimated
Fri 09:37:00 AM 62.5744 -19.1822 257° West  Level Estimated
Fri 09:38:00 AM 62.5474 -19.4355 257° West  Level Estimated
Fri 09:39:00 AM 62.5200 -19.6883 257° West  Level Estimated
Fri 09:40:00 AM 62.4921 -19.9407 257° West  Level Estimated
Fri 09:41:00 AM 62.4638 -20.1926 256° West  Level Estimated
Fri 09:42:00 AM 62.4350 -20.4440 256° West  Level Estimated
Fri 09:43:00 AM 62.4058 -20.6949 256° West  Level Estimated
Fri 09:44:00 AM 62.3761 -20.9453 256° West  Level Estimated
Fri 09:45:00 AM 62.3460 -21.1952 256° West  Level Estimated
Fri 09:46:00 AM 62.3154 -21.4446 255° West  Level Estimated
Fri 09:47:00 AM 62.2843 -21.6935 255° West  Level Estimated
Fri 09:48:00 AM 62.2529 -21.9419 255° West  Level Estimated
Fri 09:49:00 AM 62.2210 -22.1898 255° West  Level Estimated
Fri 09:50:00 AM 62.1886 -22.4371 254° West  Level Estimated
Fri 09:51:00 AM 62.1558 -22.6839 254° West  Level Estimated
Fri 09:52:00 AM 62.1226 -22.9302 254° West  Level Estimated
Fri 09:53:00 AM 62.0889 -23.1759 254° West  Level Estimated
Fri 09:54:00 AM 62.0548 -23.4211 254° West  Level Estimated
Fri 09:55:00 AM 62.0202 -23.6657 253° West  Level Estimated
Fri 09:56:00 AM 61.9853 -23.9097 253° West  Level Estimated
Fri 09:57:00 AM 61.9499 -24.1533 253° West  Level Estimated
Fri 09:58:00 AM 61.9140 -24.3962 253° West  Level Estimated
Fri 09:59:00 AM 61.8778 -24.6385 252° West  Level Estimated
Fri 10:00:00 AM 61.8411 -24.8803 252° West  Level Estimated
Fri 10:01:00 AM 61.8040 -25.1215 252° West  Level Estimated
Fri 10:02:00 AM 61.7665 -25.3622 252° West  Level Estimated
Fri 10:03:00 AM 61.7285 -25.6022 252° West  Level Estimated
Fri 10:04:00 AM 61.6902 -25.8416 251° West  Level Estimated
Fri 10:05:00 AM 61.6514 -26.0805 251° West  Level Estimated
Fri 10:06:00 AM 61.6122 -26.3187 251° West  Level Estimated
Fri 10:07:00 AM 61.5726 -26.5563 251° West  Level Estimated
Fri 10:08:00 AM 61.5325 -26.7934 251° West  Level Estimated
Fri 10:09:00 AM 61.4921 -27.0298 250° West  Level Estimated
Fri 10:10:00 AM 61.4513 -27.2656 250° West  Level Estimated
Fri 10:11:00 AM 61.4100 -27.5007 250° West  Level Estimated
Fri 10:12:00 AM 61.3684 -27.7353 250° West  Level Estimated
Fri 10:13:00 AM 61.3263 -27.9692 250° West  Level Estimated
Fri 10:14:00 AM 61.2839 -28.2025 249° West  Level Estimated
Fri 10:15:00 AM 61.2410 -28.4351 249° West  Level Estimated
Fri 10:16:00 AM 61.1977 -28.6672 249° West  Level Estimated
Fri 10:17:00 AM 61.1541 -28.8986 249° West  Level Estimated
Fri 10:18:00 AM 61.1101 -29.1293 249° West  Level Estimated
Fri 10:19:00 AM 61.0656 -29.3594 248° West  Level Estimated
Fri 10:20:00 AM 61.0208 -29.5888 248° West  Level Estimated
Fri 10:21:00 AM 60.9756 -29.8176 248° West  Level Estimated
Fri 10:22:00 AM 60.9300 -30.0458 248° West  Level Estimated
Fri 10:23:00 AM 60.8840 -30.2733 248° West  Level Estimated
Fri 10:24:00 AM 60.8376 -30.5001 247° West  Level Estimated
Fri 10:25:00 AM 60.7909 -30.7263 247° West  Level Estimated
Fri 10:26:00 AM 60.7438 -30.9518 247° West  Level Estimated
Fri 10:27:00 AM 60.6963 -31.1766 247° West  Level Estimated
Fri 10:28:00 AM 60.6484 -31.4008 247° West  Level Estimated
Fri 10:29:00 AM 60.6001 -31.6243 246° West  Level Estimated
Fri 10:30:00 AM 60.5515 -31.8472 246° West  Level Estimated
Fri 10:31:00 AM 60.5025 -32.0693 246° West  Level Estimated
Fri 10:32:00 AM 60.4532 -32.2908 246° West  Level Estimated
Fri 10:33:00 AM 60.4034 -32.5117 246° West  Level Estimated
Fri 10:34:00 AM 60.3533 -32.7318 245° Southwest  Level Estimated
Fri 10:35:00 AM 60.3029 -32.9513 245° Southwest  Level Estimated
Fri 10:36:00 AM 60.2521 -33.1701 245° Southwest  Level Estimated
Fri 10:37:00 AM 60.2009 -33.3882 245° Southwest  Level Estimated
Fri 10:38:00 AM 60.1493 -33.6056 245° Southwest  Level Estimated
Fri 10:39:00 AM 60.0975 -33.8224 244° Southwest  Level Estimated
Fri 10:40:00 AM 60.0452 -34.0384 244° Southwest  Level Estimated
Fri 10:41:00 AM 59.9926 -34.2538 244° Southwest  Level Estimated
Fri 10:42:00 AM 59.9397 -34.4685 244° Southwest  Level Estimated
Fri 10:43:00 AM 59.8864 -34.6825 244° Southwest  Level Estimated
Fri 10:44:00 AM 59.8328 -34.8958 243° Southwest  Level Estimated
Fri 10:45:00 AM 59.7788 -35.1085 243° Southwest  Level Estimated
Fri 10:46:00 AM 59.7245 -35.3204 243° Southwest  Level Estimated
Fri 10:47:00 AM 59.6698 -35.5316 243° Southwest  Level Estimated
Fri 10:48:00 AM 59.6148 -35.7422 243° Southwest  Level Estimated
Fri 10:49:00 AM 59.5595 -35.9521 243° Southwest  Level Estimated
Fri 10:50:00 AM 59.5038 -36.1613 242° Southwest  Level Estimated
Fri 10:51:00 AM 59.4478 -36.3698 242° Southwest  Level Estimated
Fri 10:52:00 AM 59.3915 -36.5775 242° Southwest  Level Estimated
Fri 10:53:00 AM 59.3348 -36.7846 242° Southwest  Level Estimated
Fri 10:54:00 AM 59.2778 -36.9911 242° Southwest  Level Estimated
Fri 10:55:00 AM 59.2205 -37.1968 242° Southwest  Level Estimated
Fri 10:56:00 AM 59.1629 -37.4018 241° Southwest  Level Estimated
Fri 10:57:00 AM 59.1049 -37.6062 241° Southwest  Level Estimated
Fri 10:58:00 AM 59.0466 -37.8098 241° Southwest  Level Estimated
Fri 10:59:00 AM 58.9880 -38.0128 241° Southwest  Level Estimated
Fri 11:00:00 AM 58.9291 -38.2150 241° Southwest  Level Estimated
Fri 11:01:00 AM 58.8699 -38.4166 240° Southwest  Level Estimated
Fri 11:02:00 AM 58.8103 -38.6175 240° Southwest  Level Estimated
Fri 11:03:00 AM 58.7505 -38.8177 240° Southwest  Level Estimated
Fri 11:04:00 AM 58.6903 -39.0172 240° Southwest  Level Estimated
Fri 11:05:00 AM 58.6298 -39.2160 240° Southwest  Level Estimated
Fri 11:06:00 AM 58.5690 -39.4141 240° Southwest  Level Estimated
Fri 11:07:00 AM 58.5080 -39.6116 239° Southwest  Level Estimated
Fri 11:08:00 AM 58.4466 -39.8083 239° Southwest  Level Estimated
Fri 11:09:00 AM 58.3849 -40.0044 239° Southwest  Level Estimated
Fri 11:10:00 AM 58.3229 -40.1997 239° Southwest  Level Estimated
Fri 11:11:00 AM 58.2607 -40.3944 239° Southwest  Level Estimated
Fri 11:12:00 AM 58.1981 -40.5884 239° Southwest  Level Estimated
Fri 11:13:00 AM 58.1352 -40.7818 238° Southwest  Level Estimated
Fri 11:14:00 AM 58.0720 -40.9744 238° Southwest  Level Estimated
Fri 11:15:00 AM 58.0086 -41.1664 238° Southwest  Level Estimated
Fri 11:16:00 AM 57.9449 -41.3576 238° Southwest  Level Estimated
Fri 11:17:00 AM 57.8809 -41.5482 238° Southwest  Level Estimated
Fri 11:18:00 AM 57.8165 -41.7382 238° Southwest  Level Estimated
Fri 11:19:00 AM 57.7520 -41.9274 237° Southwest  Level Estimated
Fri 11:20:00 AM 57.6871 -42.1160 237° Southwest  Level Estimated
Fri 11:21:00 AM 57.6219 -42.3038 237° Southwest  Level Estimated
Fri 11:22:00 AM 57.5565 -42.4911 237° Southwest  Level Estimated
Fri 11:23:00 AM 57.4908 -42.6776 237° Southwest  Level Estimated
Fri 11:24:00 AM 57.4248 -42.8635 237° Southwest  Level Estimated
Fri 11:25:00 AM 57.3586 -43.0487 237° Southwest  Level Estimated
Fri 11:26:00 AM 57.2921 -43.2332 236° Southwest  Level Estimated
Fri 11:27:00 AM 57.2253 -43.4170 236° Southwest  Level Estimated
Fri 11:28:00 AM 57.1582 -43.6003 236° Southwest  Level Estimated
Fri 11:29:00 AM 57.0909 -43.7828 236° Southwest  Level Estimated
Fri 11:30:00 AM 57.0233 -43.9646 236° Southwest  Level Estimated
Fri 11:31:00 AM 56.9555 -44.1459 236° Southwest  Level Estimated
Fri 11:32:00 AM 56.8873 -44.3264 235° Southwest  Level Estimated
Fri 11:33:00 AM 56.8190 -44.5063 235° Southwest  Level Estimated
Fri 11:34:00 AM 56.7504 -44.6855 235° Southwest  Level Estimated
Fri 11:35:00 AM 56.6815 -44.8641 235° Southwest  Level Estimated
Fri 11:36:00 AM 56.6123 -45.0420 235° Southwest  Level Estimated
Fri 11:37:00 AM 56.5429 -45.2193 235° Southwest  Level Estimated
Fri 11:38:00 AM 56.4733 -45.3959 235° Southwest  Level Estimated
Fri 11:39:00 AM 56.4034 -45.5719 234° Southwest  Level Estimated
Fri 11:40:00 AM 56.3333 -45.7472 234° Southwest  Level Estimated
Fri 11:41:00 AM 56.2629 -45.9219 234° Southwest  Level Estimated
Fri 11:42:00 AM 56.1922 -46.0960 234° Southwest  Level Estimated
Fri 11:43:00 AM 56.1214 -46.2694 234° Southwest  Level Estimated
Fri 11:44:00 AM 56.0502 -46.4421 234° Southwest  Level Estimated
Fri 11:45:00 AM 55.9789 -46.6143 234° Southwest  Level Estimated
Fri 11:46:00 AM 55.9073 -46.7858 233° Southwest  Level Estimated
Fri 11:47:00 AM 55.8354 -46.9566 233° Southwest  Level Estimated
Fri 11:48:00 AM 55.7634 -47.1269 233° Southwest  Level Estimated
Fri 11:49:00 AM 55.6911 -47.2964 233° Southwest  Level Estimated
Fri 11:50:00 AM 55.6185 -47.4654 233° Southwest  Level Estimated
Fri 11:51:00 AM 55.5458 -47.6338 233° Southwest  Level Estimated
Fri 11:52:00 AM 55.4728 -47.8015 233° Southwest  Level Estimated
Fri 11:53:00 AM 55.3995 -47.9686 232° Southwest  Level Estimated
Fri 11:54:00 AM 55.3261 -48.1351 232° Southwest  Level Estimated
Fri 11:55:00 AM 55.2524 -48.3009 232° Southwest  Level Estimated
Fri 11:56:00 AM 55.1785 -48.4662 232° Southwest  Level Estimated
Fri 11:56:20 AM 63.4167 -55.8000 231° Southwest 450 518 38,000  Level Gander Center
Fri 11:57:00 AM 55.1044 -48.6308 232° Southwest  Level Estimated
Fri 11:57:20 AM 63.3667 -56.0333 245° Southwest 440 506 38,000  Level Gander Center
Fri 11:58:00 AM 55.0300 -48.7948 232° Southwest  Level Estimated
Fri 11:58:20 AM 63.2833 -56.2667 232° Southwest 440 506 38,000  Level Gander Center
Fri 11:59:00 AM 54.9555 -48.9582 232° Southwest  Level Estimated
Fri 11:59:20 AM 63.2000 -56.4667 227° Southwest 440 506 38,000  Level Gander Center
Fri 12:00:00 PM 54.8807 -49.1209 231° Southwest  Level Estimated
Fri 12:00:20 PM 63.1500 -56.7000 245° Southwest 440 506 38,000  Level Gander Center
Fri 12:01:00 PM 54.8058 -49.2830 231° Southwest  Level Estimated
Fri 12:01:20 PM 63.0667 -56.9333 232° Southwest 450 518 38,000  Level Gander Center
Fri 12:02:20 PM 63.0000 -57.1667 238° Southwest 450 518 38,000  Level Gander Center
Fri 12:03:20 PM 62.9167 -57.3500 225° Southwest 450 518 38,000  Level Gander Center
Fri 12:04:22 PM 62.8500 -57.5167 229° Southwest 420 483 38,000  Level Montreal Center
Fri 12:05:20 PM 62.7833 -57.8000 243° Southwest 440 506 38,000  Level Gander Center
Fri 12:06:20 PM 62.7000 -58.0000 228° Southwest 440 506 38,000  Level Gander Center
Fri 12:07:20 PM 62.6333 -58.2167 236° Southwest 440 506 38,000  Level Gander Center
Fri 12:08:20 PM 62.5667 -58.4000 232° Southwest 440 506 38,000  Level Gander Center
Fri 12:09:20 PM 62.4833 -58.6333 232° Southwest 440 506 38,000  Level Gander Center
Fri 12:10:20 PM 62.4000 -58.8500 230° Southwest 440 506 38,000  Level Gander Center
Fri 12:11:20 PM 62.3333 -59.0333 232° Southwest 440 506 38,000  Level Gander Center
Fri 12:12:20 PM 62.2667 -59.2500 237° Southwest 440 506 38,000  Level Gander Center
Fri 12:13:20 PM 62.1833 -59.4667 231° Southwest 440 506 38,000  Level Gander Center
Fri 12:14:20 PM 62.1000 -59.6500 226° Southwest 440 506 38,000  Level Gander Center
Fri 12:15:20 PM 62.0333 -59.8667 237° Southwest 440 506 38,000  Level Gander Center
Fri 12:16:20 PM 61.9500 -60.0500 226° Southwest 440 506 38,000  Level Gander Center
Fri 12:17:20 PM 61.8667 -60.2667 231° Southwest 450 518 38,000  Level Gander Center
Fri 12:18:20 PM 61.8000 -60.4667 235° Southwest 450 518 38,000  Level Gander Center
Fri 12:19:20 PM 61.7167 -60.6833 231° Southwest 450 518 38,000  Level Gander Center
Fri 12:20:20 PM 61.6500 -60.8667 233° Southwest 450 518 38,000  Level Gander Center
Fri 12:21:20 PM 61.5667 -61.0667 229° Southwest 450 518 38,000  Level Gander Center
Fri 12:22:20 PM 61.4833 -61.2833 231° Southwest 450 518 38,000  Level Gander Center
Fri 12:23:20 PM 61.4000 -61.4833 229° Southwest 450 518 38,000  Level Gander Center
Fri 12:24:22 PM 61.3167 -61.6333 221° Southwest 450 518 38,000  Level Montreal Center
Fri 12:25:22 PM 61.2333 -61.8000 224° Southwest 450 518 38,000  Level Montreal Center
Fri 12:26:22 PM 61.1500 -62.0167 231° Southwest 450 518 38,000  Level Montreal Center
Fri 12:27:20 PM 61.0833 -62.2500 239° Southwest 460 529 38,000  Level Gander Center
Fri 12:28:20 PM 61.0000 -62.4500 229° Southwest 460 529 38,000  Level Gander Center
Fri 12:29:20 PM 60.9000 -62.6500 224° Southwest 450 518 38,000  Level Gander Center
Fri 12:31:20 PM 60.7333 -63.0833 232° Southwest 460 529 38,000  Level Gander Center
Fri 12:32:20 PM 60.6500 -63.2500 224° Southwest 450 518 38,000  Level Gander Center
Fri 12:33:20 PM 60.5667 -63.4500 230° Southwest 450 518 38,000  Level Gander Center
Fri 12:34:20 PM 60.4833 -63.6500 230° Southwest 450 518 38,000  Level Gander Center
Fri 12:35:20 PM 60.4167 -63.8333 234° Southwest 450 518 38,000  Level Gander Center
Fri 12:36:20 PM 60.3000 -64.0333 220° Southwest 450 518 38,000  Level Gander Center
Fri 12:37:20 PM 60.2333 -64.2000 231° Southwest 450 518 38,000  Level Gander Center
Fri 12:38:20 PM 60.1500 -64.3833 228° Southwest 450 518 38,000  Level Gander Center
Fri 12:39:20 PM 60.0667 -64.5833 230° Southwest 450 518 38,000  Level Gander Center
Fri 12:40:20 PM 59.9667 -64.7333 217° Southwest 450 518 38,000  Level Gander Center
Fri 12:41:20 PM 59.8833 -64.9333 230° Southwest 450 518 38,000  Level Gander Center
Fri 12:42:20 PM 59.8167 -65.1167 234° Southwest 440 506 38,000  Level Gander Center
Fri 12:43:20 PM 59.7333 -65.2833 225° Southwest 450 518 38,000  Level Gander Center
Fri 12:44:20 PM 59.6333 -65.4667 223° Southwest 450 518 38,000  Level Gander Center
Fri 12:45:20 PM 59.5500 -65.6500 228° Southwest 450 518 38,000  Level Gander Center
Fri 12:46:20 PM 59.4833 -65.8000 229° Southwest 450 518 38,000  Level Gander Center
Fri 12:47:20 PM 59.3833 -65.9833 223° Southwest 450 518 38,000  Level Gander Center
Fri 12:48:20 PM 59.3000 -66.1833 231° Southwest 450 518 38,000  Level Gander Center
Fri 12:49:20 PM 59.2000 -66.3500 221° Southwest 450 518 38,000  Level Gander Center
Fri 12:50:20 PM 59.1167 -66.5000 223° Southwest 450 518 38,000  Level Gander Center
Fri 12:51:20 PM 59.0333 -66.6833 229° Southwest 450 518 38,000  Level Gander Center
Fri 12:52:20 PM 58.9333 -66.8667 223° Southwest 450 518 38,000  Level Gander Center
Fri 12:53:20 PM 58.8667 -67.0167 229° Southwest 450 518 38,000  Level Gander Center
Fri 12:54:20 PM 58.7667 -67.2000 224° Southwest 450 518 38,000  Level Gander Center
Fri 12:55:20 PM 58.6833 -67.3833 229° Southwest 450 518 38,000  Level Gander Center
Fri 12:56:20 PM 58.5833 -67.5500 221° Southwest 450 518 38,000  Level Gander Center
Fri 12:57:20 PM 58.5000 -67.7000 223° Southwest 450 518 38,000  Level Gander Center
Fri 12:58:20 PM 58.4000 -67.8667 221° Southwest 450 518 38,000  Level Gander Center
Fri 12:59:20 PM 58.3167 -68.0500 229° Southwest 450 518 38,000  Level Gander Center
Fri 01:00:20 PM 58.2333 -68.2000 223° Southwest 460 529 38,000  Level Gander Center
Fri 01:01:20 PM 58.1500 -68.4000 232° Southwest 460 529 38,000  Level Gander Center
Fri 01:02:20 PM 58.0333 -68.5000 204° Southwest 410 472 38,000  Level Gander Center
Fri 01:03:20 PM 57.9500 -68.6500 224° Southwest 460 529 38,000  Level Gander Center
Fri 01:04:20 PM 57.8333 -68.8167 217° Southwest 460 529 38,000  Level Gander Center
Fri 01:05:20 PM 57.7500 -68.9500 221° Southwest 450 518 38,000  Level Gander Center
Fri 01:06:20 PM 57.6333 -69.0833 211° Southwest 460 529 38,000  Level Gander Center
Fri 01:07:20 PM 57.5333 -69.2167 216° Southwest 460 529 38,000  Level Gander Center
Fri 01:08:20 PM 57.4167 -69.3500 212° Southwest 450 518 38,000  Level Gander Center
Fri 01:09:20 PM 57.3333 -69.4833 221° Southwest 460 529 38,000  Level Gander Center
Fri 01:10:20 PM 57.2167 -69.6167 212° Southwest 460 529 38,000  Level Gander Center
Fri 01:11:20 PM 57.1333 -69.7500 221° Southwest 460 529 38,000  Level Gander Center
Fri 01:12:20 PM 57.0167 -69.9167 218° Southwest 460 529 38,000  Level Gander Center
Fri 01:13:20 PM 56.9000 -70.0333 209° Southwest 460 529 38,000  Level Gander Center
Fri 01:14:20 PM 56.8167 -70.1667 221° Southwest 460 529 38,000  Level Gander Center
Fri 01:15:20 PM 56.7000 -70.3000 212° Southwest 460 529 38,000  Level Gander Center
Fri 01:16:20 PM 56.6167 -70.4333 221° Southwest 460 529 38,000  Level Gander Center
Fri 01:17:20 PM 56.5000 -70.5500 209° Southwest 460 529 38,000  Level Gander Center
Fri 01:18:20 PM 56.3833 -70.6833 212° Southwest 460 529 38,000  Level Gander Center
Fri 01:19:20 PM 56.2833 -70.8000 213° Southwest 460 529 38,000  Level Gander Center
Fri 01:20:20 PM 56.1833 -70.9333 217° Southwest 460 529 38,000  Level Gander Center
Fri 01:21:20 PM 56.0833 -71.0500 213° Southwest 460 529 38,000  Level Gander Center
Fri 01:22:20 PM 55.9667 -71.2167 219° Southwest 460 529 38,000  Level Gander Center
Fri 01:23:20 PM 55.8500 -71.3333 209° Southwest 460 529 38,000  Level Gander Center
Fri 01:24:20 PM 55.7500 -71.4500 213° Southwest 460 529 38,000  Level Gander Center
Fri 01:25:20 PM 55.6500 -71.5833 217° Southwest 460 529 38,000  Level Gander Center
Fri 01:26:20 PM 55.5333 -71.7000 210° Southwest 460 529 38,000  Level Gander Center
Fri 01:27:20 PM 55.4333 -71.8167 214° Southwest 460 529 38,000  Level Gander Center
Fri 01:28:20 PM 55.3333 -71.9333 214° Southwest 460 529 38,000  Level Gander Center
Fri 01:29:20 PM 55.2167 -72.0833 216° Southwest 460 529 38,000  Level Gander Center
Fri 01:30:14 PM 55.1333 -72.1333 199° South 460 529 38,000  Level Montreal Center
Fri 01:31:14 PM 55.0167 -72.2667 213° Southwest 460 529 38,000  Level Montreal Center
Fri 01:32:14 PM 54.9167 -72.3833 214° Southwest 460 529 38,000  Level Montreal Center
Fri 01:33:14 PM 54.8000 -72.5167 213° Southwest 460 529 38,000  Level Montreal Center
Fri 01:34:14 PM 54.7000 -72.6167 210° Southwest 460 529 38,000  Level Montreal Center
Fri 01:35:14 PM 54.5833 -72.7333 210° Southwest 460 529 38,000  Level Montreal Center
Fri 01:36:14 PM 54.4833 -72.8667 218° Southwest 460 529 38,000  Level Montreal Center
Fri 01:37:14 PM 54.3667 -72.9833 210° Southwest 460 529 38,000  Level Montreal Center
Fri 01:38:14 PM 54.2667 -73.1167 218° Southwest 460 529 38,000  Level Montreal Center
Fri 01:39:14 PM 54.1500 -73.2333 210° Southwest 460 529 38,000  Level Montreal Center
Fri 01:40:14 PM 54.0500 -73.3167 206° Southwest 460 529 38,000  Level Montreal Center
Fri 01:41:14 PM 53.9333 -73.4500 214° Southwest 460 529 38,000  Level Montreal Center
Fri 01:42:14 PM 53.8333 -73.5667 215° Southwest 460 529 38,000  Level Montreal Center
Fri 01:43:14 PM 53.7167 -73.6833 211° Southwest 460 529 38,000  Level Montreal Center
Fri 01:44:14 PM 53.6000 -73.7833 207° Southwest 460 529 38,000  Level Montreal Center
Fri 01:45:14 PM 53.4833 -73.8667 203° Southwest 460 529 38,000  Level Montreal Center
Fri 01:46:14 PM 53.3667 -73.9667 207° Southwest 460 529 38,000  Level Montreal Center
Fri 01:47:14 PM 53.2667 -74.0833 215° Southwest 460 529 38,000  Level Montreal Center
Fri 01:48:14 PM 53.1333 -74.1667 201° Southwest 460 529 38,000  Level Montreal Center
Fri 01:49:14 PM 53.0167 -74.2500 203° Southwest 460 529 38,000  Level Montreal Center
Fri 01:50:14 PM 52.9167 -74.3667 215° Southwest 460 529 38,000  Level Montreal Center
Fri 01:51:14 PM 52.8000 -74.4667 207° Southwest 460 529 38,000  Level Montreal Center
Fri 01:52:14 PM 52.6833 -74.5500 203° Southwest 460 529 38,000  Level Montreal Center
Fri 01:53:14 PM 52.5500 -74.6333 201° Southwest 460 529 38,000  Level Montreal Center
Fri 01:54:14 PM 52.4500 -74.7167 207° Southwest 460 529 38,000  Level Montreal Center
Fri 01:55:14 PM 52.3333 -74.8333 211° Southwest 460 529 38,000  Level Montreal Center
Fri 01:56:14 PM 52.2167 -74.9167 204° Southwest 460 529 38,000  Level Montreal Center
Fri 01:57:14 PM 52.1000 -75.0000 204° Southwest 460 529 38,000  Level Montreal Center
Fri 01:58:14 PM 51.9833 -75.0833 204° Southwest 470 541 38,000  Level Montreal Center
Fri 01:59:14 PM 51.8667 -75.2000 212° Southwest 460 529 38,000  Level Montreal Center
Fri 02:00:14 PM 51.7500 -75.2833 204° Southwest 460 529 38,000  Level Montreal Center
Fri 02:01:14 PM 51.6333 -75.3667 204° Southwest 460 529 38,000  Level Montreal Center
Fri 02:02:14 PM 51.5000 -75.4833 209° Southwest 460 529 38,000  Level Montreal Center
Fri 02:03:14 PM 51.4000 -75.5667 207° Southwest 460 529 38,000  Level Montreal Center
Fri 02:04:14 PM 51.2667 -75.6500 201° Southwest 460 529 38,000  Level Montreal Center
Fri 02:05:14 PM 51.1667 -75.7167 203° Southwest 460 529 38,000  Level Montreal Center
Fri 02:06:14 PM 51.0333 -75.8333 209° Southwest 470 541 38,000  Level Montreal Center
Fri 02:07:14 PM 50.9333 -75.9167 208° Southwest 460 529 38,000  Level Montreal Center
Fri 02:08:14 PM 50.8000 -76.0000 202° Southwest 460 529 38,000  Level Montreal Center
Fri 02:09:14 PM 50.7000 -76.0667 203° Southwest 470 541 38,000  Level Montreal Center
Fri 02:10:14 PM 50.5833 -76.1500 204° Southwest 460 529 38,000  Level Montreal Center
Fri 02:11:14 PM 50.4500 -76.2500 206° Southwest 470 541 38,000  Level Montreal Center
Fri 02:12:14 PM 50.3500 -76.3333 208° Southwest 470 541 38,000  Level Montreal Center
Fri 02:13:14 PM 50.2167 -76.4167 202° Southwest 470 541 38,000  Level Montreal Center
Fri 02:14:14 PM 50.1000 -76.5167 209° Southwest 470 541 38,000  Level Montreal Center
Fri 02:15:14 PM 49.9667 -76.6000 202° Southwest 470 541 38,000  Level Montreal Center
Fri 02:16:14 PM 49.8500 -76.6667 200° South 470 541 38,000  Level Montreal Center
Fri 02:17:14 PM 49.7333 -76.7667 209° Southwest 460 529 38,000  Level Montreal Center
Fri 02:18:14 PM 49.6167 -76.8500 205° Southwest 470 541 38,000  Level Montreal Center
Fri 02:19:14 PM 49.5000 -76.9167 200° South 450 518 38,000  Level Montreal Center
Fri 02:20:14 PM 49.3833 -77.0000 205° Southwest 490 564 38,000  Level Montreal Center
Fri 02:21:14 PM 49.2667 -77.1000 209° Southwest 460 529 38,000  Level Montreal Center
Fri 02:22:14 PM 49.1500 -77.1667 200° South 460 529 38,000  Level Montreal Center
Fri 02:23:14 PM 49.0333 -77.2500 205° Southwest 470 541 38,000  Level Montreal Center
Fri 02:24:14 PM 48.9000 -77.3167 198° South 470 541 38,000  Level Montreal Center
Fri 02:25:14 PM 48.7833 -77.4167 209° Southwest 470 541 38,000  Level Montreal Center
Fri 02:26:14 PM 48.6667 -77.5000 205° Southwest 470 541 38,000  Level Montreal Center
Fri 02:27:14 PM 48.5500 -77.5667 201° Southwest 470 541 38,000  Level Montreal Center
Fri 02:28:14 PM 48.4333 -77.6667 210° Southwest 470 541 38,000  Level Montreal Center
Fri 02:29:14 PM 48.3167 -77.7333 201° Southwest 470 541 38,000  Level Montreal Center
Fri 02:30:14 PM 48.1833 -77.8000 198° South 460 529 38,000  Level Montreal Center
Fri 02:31:14 PM 48.0833 -77.8833 209° Southwest 460 529 38,000  Level Montreal Center
Fri 02:32:14 PM 47.9500 -77.9500 199° South 470 541 38,000  Level Montreal Center
Fri 02:33:14 PM 47.8167 -78.0167 199° South 470 541 38,000  Level Montreal Center
Fri 02:34:14 PM 47.7000 -78.0833 201° Southwest 470 541 38,000  Level Montreal Center
Fri 02:35:14 PM 47.5833 -78.1500 201° Southwest 470 541 38,000  Level Montreal Center
Fri 02:36:14 PM 47.4667 -78.2333 206° Southwest 470 541 38,000  Level Montreal Center
Fri 02:37:14 PM 47.3333 -78.3167 203° Southwest 460 529 38,000  Level Montreal Center
Fri 02:38:14 PM 47.2167 -78.3667 196° South 460 529 38,000  Level Montreal Center
Fri 02:39:14 PM 47.1000 -78.4333 201° Southwest 460 529 38,000  Level Montreal Center
Fri 02:41:03 PM 46.8833 -78.5333 198° South 460 529 38,000  Level Toronto Center
Fri 02:42:03 PM 46.7667 -78.6167 206° Southwest 460 529 38,000  Level Toronto Center
Fri 02:47:58 PM 46.0478 -79.0220 201° Southwest 469 540 38,000  Level FlightAware ADS-B (CYYZ)
Fri 02:48:29 PM 45.9878 -79.0544 201° Southwest 469 540 38,000  Level FlightAware ADS-B (CYYZ)
Fri 02:48:58 PM 45.9641 -79.0672 201° Southwest 469 540 38,000  Level FlightAware ADS-B (CYYZ)
Fri 02:49:28 PM 45.8646 -79.1207 201° Southwest 470 541 38,000  Level FlightAware ADS-B (CYYZ)
Fri 02:49:57 PM 45.8071 -79.1515 201° Southwest 469 540 38,000  Level FlightAware ADS-B (CYYZ)
Fri 02:50:28 PM 45.7430 -79.1858 201° Southwest 470 541 38,000  Level FlightAware ADS-B (CYYZ)
Fri 02:50:57 PM 45.6840 -79.2173 201° Southwest 471 542 38,000  Level FlightAware ADS-B (CYYZ)
Fri 02:51:28 PM 45.6235 -79.2497 201° Southwest 472 543 38,000  Level FlightAware ADS-B (CYYZ)
Fri 02:51:58 PM 45.5639 -79.2814 201° Southwest 473 544 38,000  Level FlightAware ADS-B (CYYZ)
Fri 02:52:28 PM 45.5017 -79.3143 201° Southwest 473 544 38,000  Level FlightAware ADS-B (CYYZ)
Fri 02:52:58 PM 45.4376 -79.3483 201° Southwest 473 544 38,000  Level FlightAware ADS-B (CYYZ)
Fri 02:53:28 PM 45.3786 -79.3794 201° Southwest 474 545 38,000  Level FlightAware ADS-B (CYYZ)
Fri 02:53:59 PM 45.3143 -79.4132 201° Southwest 474 545 38,000  Level FlightAware ADS-B (CYYZ)
Fri 02:54:28 PM 45.2530 -79.4454 201° Southwest 474 545 38,000  Level FlightAware ADS-B (CYYZ)
Fri 02:54:58 PM 45.2079 -79.4691 201° Southwest 474 545 38,000  Level FlightAware ADS-B (CYYZ)
Fri 02:55:29 PM 45.1323 -79.5087 201° Southwest 472 543 38,000  Level FlightAware ADS-B (CYYZ)
Fri 02:55:59 PM 45.1019 -79.5245 201° Southwest 471 542 38,000  Level FlightAware ADS-B (CYYZ)
Fri 02:56:23 PM 45.0176 -79.5684 201° Southwest 471 542 38,000  Level FlightAware ADS-B (CYYZ)
Fri 02:56:45 PM 45.0018 -79.5766 201° Southwest 470 541 38,000  Level FlightAware ADS-B (CYYZ)
Fri 02:57:56 PM 44.8478 -79.6565 201° Southwest 469 540 38,000  Level FlightAware ADS-B (CYYZ)
Fri 02:58:59 PM 44.7147 -79.7252 201° Southwest 470 541 38,000  Level FlightAware ADS-B (CYYZ)
Fri 02:59:14 PM 44.6709 -79.7477 200° South 468 539 38,000  Level FlightAware ADS-B (CYKF)
Fri 02:59:28 PM 44.6420 -79.7626 201° Southwest 467 537 38,000  Level FlightAware ADS-B (CYYZ)
Fri 03:00:04 PM 44.5718 -79.8050 207° Southwest 459 528 38,000  Level FlightAware ADS-B (CYYZ)
Fri 03:00:59 PM 44.4745 -79.8888 214° Southwest 452 520 38,000  Level FlightAware ADS-B (CYYZ)
Fri 03:01:29 PM 44.4237 -79.9357 214° Southwest 453 521 38,000  Level FlightAware ADS-B (CYYZ)
Fri 03:01:58 PM 44.3692 -79.9852 213° Southwest 454 522 38,000  Level FlightAware ADS-B (CYYZ)
Fri 03:02:28 PM 44.3165 -80.0324 213° Southwest 456 525 38,000  Level FlightAware ADS-B (CYYZ)
Fri 03:02:58 PM 44.2643 -80.0792 213° Southwest 459 528 38,000  Level FlightAware ADS-B (CYYZ)
Fri 03:03:21 PM 44.2510 -80.0911 213° Southwest 461 531 38,000  Level FlightAware ADS-B (CYKF)
Fri 03:03:29 PM 44.2097 -80.1279 213° Southwest 461 531 38,000  Level FlightAware ADS-B (CYYZ)
Fri 03:03:58 PM 44.1561 -80.1757 213° Southwest 462 532 38,000  Level FlightAware ADS-B (CYYZ)
Fri 03:04:19 PM 44.1194 -80.2082 213° Southwest 459 528 38,000  Level FlightAware ADS-B (CYKF)
Fri 03:04:39 PM 44.0847 -80.2389 213° Southwest 452 520 38,000  Level FlightAware ADS-B (CYYZ)
Fri 03:05:09 PM 44.0330 -80.2848 213° Southwest 447 514 38,000  Level FlightAware ADS-B (CYYZ)
Fri 03:05:58 PM 43.9491 -80.3591 213° Southwest 448 516 38,000  Level FlightAware ADS-B (CYYZ)
Fri 03:06:19 PM 43.9142 -80.3900 213° Southwest 447 514 38,000  Level FlightAware ADS-B (CYKF)
Fri 03:06:28 PM 43.8936 -80.4081 213° Southwest 449 517 38,000  Level FlightAware ADS-B (CYYZ)
Fri 03:06:57 PM 43.8609 -80.4369 213° Southwest 450 518 38,000  Level FlightAware ADS-B (CYYZ)
Fri 03:07:19 PM 43.8073 -80.4840 213° Southwest 451 519 38,000  Level FlightAware ADS-B (CYKF)
Fri 03:07:28 PM 43.7878 -80.5011 213° Southwest 451 519 38,000  Level FlightAware ADS-B (CYYZ)
Fri 03:07:57 PM 43.7595 -80.5259 213° Southwest 453 521 38,000  Level FlightAware ADS-B (CYYZ)
Fri 03:07:59 PM 43.7409 -80.5423 213° Southwest 453 521 38,000  Level FlightAware ADS-B (ETHL)
Fri 03:08:28 PM 43.6815 -80.5943 213° Southwest 457 526 38,000  Level FlightAware ADS-B (CYYZ)
Fri 03:08:34 PM 43.6716 -80.6029 212° Southwest 457 526 38,000  Level FlightAware ADS-B (ETHL)
Fri 03:08:59 PM 43.6518 -80.6202 213° Southwest 459 528 38,000  Level FlightAware ADS-B (CYYZ)
Fri 03:09:20 PM 43.5898 -80.6741 212° Southwest 459 528 38,000  Level FlightAware ADS-B (CYKF)
Fri 03:09:24 PM 43.5818 -80.6811 213° Southwest 461 531 38,000  Level FlightAware ADS-B (CYYZ)
Fri 03:09:56 PM 43.5323 -80.7241 213° Southwest 461 531 38,000  Level FlightAware ADS-B (CYYZ)
Fri 03:10:05 PM 43.5081 -80.7450 212° Southwest 460 529 38,000  Level FlightAware ADS-B (ETHL)
Fri 03:10:28 PM 43.4700 -80.7781 213° Southwest 462 532 38,000  Level FlightAware ADS-B (CYYZ)
Fri 03:10:58 PM 43.4151 -80.8254 213° Southwest 462 532 38,000  Level FlightAware ADS-B (CYYZ)
Fri 03:11:20 PM 43.3746 -80.8605 212° Southwest 460 529 38,000  Level FlightAware ADS-B (CYKF)
Fri 03:11:27 PM 43.3711 -80.8635 213° Southwest 459 528 38,000  Level FlightAware ADS-B (CYYZ)
Fri 03:11:58 PM 43.3119 -80.9144 213° Southwest 458 527 38,000  Level FlightAware ADS-B (CYYZ)
Fri 03:12:12 PM 43.3352 -80.8944 212° Southwest 458 527 38,000  Level FlightAware ADS-B (CYKF)
Fri 03:12:28 PM 43.2532 -80.9648 213° Southwest 456 525 38,000  Level FlightAware ADS-B (CYYZ)
Fri 03:12:58 PM 43.1990 -81.0113 213° Southwest 455 524 38,000  Level FlightAware ADS-B (CYYZ)
Fri 03:13:20 PM 43.1585 -81.0461 212° Southwest 453 521 38,000  Level FlightAware ADS-B (CYKF)
Fri 03:13:28 PM 43.1441 -81.0584 213° Southwest 454 522 38,000  Level FlightAware ADS-B (CYYZ)
Fri 03:13:59 PM 43.0911 -81.1037 213° Southwest 454 522 38,000  Level FlightAware ADS-B (CYYZ)
Fri 03:14:17 PM 43.0580 -81.1317 211° Southwest 456 525 38,000  Level FlightAware ADS-B (CYKF)
Fri 03:14:28 PM 43.0370 -81.1474 208° Southwest 460 529 38,000  Level FlightAware ADS-B (CYYZ)
Fri 03:15:13 PM 42.9508 -81.2009 206° Southwest 463 533 38,000  Level FlightAware ADS-B (CYYZ)
Fri 03:15:43 PM 42.8914 -81.2390 206° Southwest 460 529 38,000  Level FlightAware ADS-B (CYYZ)
Fri 03:16:13 PM 42.8359 -81.2738 205° Southwest 460 529 38,000  Level FlightAware ADS-B (CYYZ)
Fri 03:16:16 PM 42.8288 -81.2782 205° Southwest 458 527 38,000  Level FlightAware ADS-B (CYKF)
Fri 03:16:44 PM 42.7751 -81.3115 205° Southwest 457 526 38,000  Level FlightAware ADS-B (CYYZ)
Fri 03:17:14 PM 42.7193 -81.3458 205° Southwest 453 521 38,000  Level FlightAware ADS-B (CYYZ)
Fri 03:17:18 PM 42.7229 -81.3435 204° Southwest 452 520 38,000  Level FlightAware ADS-B (CYKF)
Fri 03:17:43 PM 42.6612 -81.3812 205° Southwest 452 520 38,000  Level FlightAware ADS-B (CYYZ)
Fri 03:18:14 PM 42.6046 -81.4158 205° Southwest 449 517 38,000  Level FlightAware ADS-B (CYYZ)
Fri 03:18:43 PM 42.5474 -81.4507 205° Southwest 450 518 38,000  Level FlightAware ADS-B (CYYZ)
Fri 03:19:13 PM 42.4913 -81.4847 205° Southwest 449 517 38,000  Level FlightAware ADS-B (CYYZ)
Fri 03:19:44 PM 42.4353 -81.5189 205° Southwest 450 518 38,000  Level FlightAware ADS-B (CYYZ)
Fri 03:20:13 PM 42.3784 -81.5536 205° Southwest 451 519 38,000  Level FlightAware ADS-B (CYYZ)
Fri 03:20:16 PM 42.4050 -81.5374 204° Southwest 451 519 38,000  Level FlightAware ADS-B (CYKF)
Fri 03:20:44 PM 42.3212 -81.5882 205° Southwest 452 520 38,000  Level FlightAware ADS-B (CYYZ)
Fri 03:21:14 PM 42.2652 -81.6222 205° Southwest 451 519 38,000  Level FlightAware ADS-B (CYYZ)
Fri 03:21:43 PM 42.2085 -81.6564 205° Southwest 452 520 38,000  Level FlightAware ADS-B (CYYZ)
Fri 03:22:13 PM 42.1503 -81.6916 205° Southwest 453 521 38,000  Level FlightAware ADS-B (CYYZ)
Fri 03:22:43 PM 42.0939 -81.7254 205° Southwest 457 526 38,000  Level FlightAware ADS-B (CYYZ)
Fri 03:23:14 PM 42.0404 -81.7575 205° Southwest 459 528 38,000  Level FlightAware ADS-B (CYYZ)
Fri 03:23:44 PM 41.9777 -81.7952 205° Southwest 459 528 38,000  Level FlightAware ADS-B (CYYZ)
Fri 03:24:14 PM 41.9184 -81.8306 204° Southwest 456 525 38,000  Level FlightAware ADS-B (CYYZ)
Fri 03:24:43 PM 41.8644 -81.8626 205° Southwest 454 522 38,000  Level FlightAware ADS-B (CYYZ)
Fri 03:25:14 PM 41.8049 -81.8981 205° Southwest 452 520 38,000  Level FlightAware ADS-B (CYYZ)
Fri 03:25:43 PM 41.7474 -81.9323 205° Southwest 449 517 38,000  Level FlightAware ADS-B (CYYZ)
Fri 03:26:13 PM 41.6994 -81.9608 205° Southwest 448 516 38,000  Level FlightAware ADS-B (CYYZ)
Fri 03:27:48 PM 41.5213 -82.0661 204° Southwest 445 512 38,000  Level FlightAware ADS-B (CYYZ)
Fri 03:28:18 PM 41.4604 -82.1020 205° Southwest 446 513 38,000  Level FlightAware ADS-B (CYYZ)
Fri 03:28:48 PM 41.3995 -82.1378 204° Southwest 449 517 38,000  Level FlightAware ADS-B (CYYZ)
Fri 03:29:44 PM 41.2917 -82.1844 204° Southwest 451 519 38,000  Level Indianapolis Center
Fri 03:30:46 PM 41.1669 -82.2294 195° South 461 531 38,000  Level Indianapolis Center
Fri 03:31:48 PM 41.0428 -82.2747 195° South 461 531 38,000  Level Indianapolis Center
Fri 03:32:50 PM 40.9183 -82.3197 195° South 461 531 38,000  Level Indianapolis Center
Fri 03:33:52 PM 40.7944 -82.3633 195° South 461 531 38,000  Level Indianapolis Center
Fri 03:34:54 PM 40.6703 -82.4072 195° South 461 531 38,000  Level Indianapolis Center
Fri 03:35:56 PM 40.5469 -82.4500 195° South 459 528 38,000  Level Indianapolis Center
Fri 03:36:58 PM 40.4019 -82.5019 195° South 458 527 38,000  Level Indianapolis Center
Fri 03:38:00 PM 40.2769 -82.5439 194° South 459 528 38,000  Level Indianapolis Center
Fri 03:39:02 PM 40.1631 -82.5819 194° South 459 528 38,000  Level Indianapolis Center
Fri 03:40:05 PM 40.0308 -82.5950 184° South 470 541 38,000  Level Indianapolis Center
Fri 03:41:07 PM 39.8728 -82.6064 183° South 471 542 38,000  Level Indianapolis Center
Fri 03:42:09 PM 39.7414 -82.6161 183° South 471 542 38,000  Level Indianapolis Center
Fri 03:43:11 PM 39.6089 -82.6253 183° South 471 542 38,000  Level Indianapolis Center
Fri 03:44:13 PM 39.4775 -82.6342 183° South 472 543 38,000  Level Indianapolis Center
Fri 03:45:15 PM 39.3458 -82.6433 183° South 472 543 38,000  Level Indianapolis Center
Fri 03:46:17 PM 39.2147 -82.6514 183° South 472 543 38,000  Level Indianapolis Center
Fri 03:47:19 PM 39.0817 -82.6603 183° South 472 543 38,000  Level Indianapolis Center
Fri 03:48:21 PM 38.9261 -82.6714 183° South 471 542 38,000  Level Indianapolis Center
Fri 03:49:23 PM 38.7958 -82.6797 183° South 471 542 38,000  Level Indianapolis Center
Fri 03:50:25 PM 38.6653 -82.6875 183° South 471 542 38,000  Level Indianapolis Center
Fri 03:51:28 PM 38.5325 -82.6964 183° South 471 542 38,000  Level Indianapolis Center
Fri 03:52:30 PM 38.4003 -82.7056 183° South 471 542 38,000  Level Indianapolis Center
Fri 03:53:32 PM 38.2464 -82.7139 182° South 472 543 38,000  Level Indianapolis Center
Fri 03:54:34 PM 38.1144 -82.7244 184° South 472 543 38,000  Level Indianapolis Center
Fri 03:55:36 PM 37.9831 -82.7317 182° South 472 543 38,000  Level Indianapolis Center
Fri 03:56:38 PM 37.8522 -82.7414 183° South 472 543 38,000  Level Indianapolis Center
Fri 03:57:40 PM 37.7211 -82.7536 184° South 472 543 38,000  Level Indianapolis Center
Fri 03:58:42 PM 37.6033 -82.8011 198° South 448 516 38,000  Level Indianapolis Center
Fri 03:59:44 PM 37.4783 -82.8833 208° Southwest 438 504 38,000  Level Indianapolis Center
Fri 04:00:46 PM 37.3722 -82.9542 208° Southwest 436 502 38,000  Level Indianapolis Center
Fri 04:01:48 PM 37.2653 -83.0233 207° Southwest 436 502 38,000  Level Indianapolis Center
Fri 04:02:51 PM 37.1611 -83.0908 207° Southwest 431 496 38,000  Level Indianapolis Center
Fri 04:03:53 PM 37.0428 -83.1694 208° Southwest 420 483 38,000  Level Indianapolis Center
Fri 04:04:55 PM 36.9417 -83.2333 207° Southwest 414 476 38,000  Level Indianapolis Center
Fri 04:05:57 PM 36.8397 -83.2986 207° Southwest 414 476 38,000  Level Indianapolis Center
Fri 04:06:59 PM 36.7375 -83.3650 207° Southwest 414 476 38,000  Level Indianapolis Center
Fri 04:08:01 PM 36.6169 -83.4422 207° Southwest 415 478 38,000  Level Indianapolis Center
Fri 04:09:03 PM 36.5136 -83.5081 207° Southwest 415 478 38,000  Level Indianapolis Center
Fri 04:10:06 PM 36.4056 -83.5761 207° Southwest 415 478 38,000  Level Indianapolis Center
Fri 04:11:07 PM 36.3039 -83.6425 208° Southwest 415 478 38,000  Level Indianapolis Center
Fri 04:12:09 PM 36.2006 -83.7078 207° Southwest 415 478 38,000  Level Indianapolis Center
Fri 04:13:11 PM 36.0967 -83.7728 207° Southwest 415 478 38,000  Level Indianapolis Center
Fri 04:14:22 PM 35.9642 -83.8592 208° Southwest 415 478 38,000  Level Atlanta Center
Fri 04:19:39 PM 35.3377 -84.0323 191° South 441 507 38,000  Level FlightAware ADS-B (KDZJ)
Fri 04:20:16 PM 35.2632 -84.0503 191° South 443 510 38,000  Level FlightAware ADS-B (KDZJ)
Fri 04:20:59 PM 35.1755 -84.0713 191° South 445 512 38,000  Level FlightAware ADS-B (KDZJ)
Fri 04:21:35 PM 35.1037 -84.0886 191° South 440 506 38,000  Level FlightAware ADS-B (KDZJ)
Fri 04:22:24 PM 35.0009 -84.1132 191° South 442 509 38,000  Level FlightAware ADS-B (KDZJ)
Fri 04:23:04 PM 34.9171 -84.1331 191° South 442 509 38,000  Level FlightAware ADS-B (KDZJ)
Fri 04:23:44 PM 34.8376 -84.1520 191° South 442 509 38,000  Level FlightAware ADS-B (KDZJ)
Fri 04:24:24 PM 34.7581 -84.1709 191° South 442 509 38,000  Level FlightAware ADS-B (KDZJ)
Fri 04:25:19 PM 34.6462 -84.1974 191° South 442 509 38,000  Level FlightAware ADS-B (KDZJ)
Fri 04:26:03 PM 34.5564 -84.2186 191° South 442 509 38,000  Level FlightAware ADS-B (KDZJ)
Fri 04:26:45 PM 34.4685 -84.2394 191° South 442 509 38,000  Level FlightAware ADS-B (KDZJ)
Fri 04:27:45 PM 34.3431 -84.2689 191° South 443 510 38,000  Level FlightAware ADS-B (KDZJ)
Fri 04:28:25 PM 34.2590 -84.2885 191° South 444 511 38,000  Level FlightAware ADS-B (KDZJ)
Fri 04:29:05 PM 34.1784 -84.3074 191° South 443 510 38,000  Level FlightAware ADS-B (KDZJ)
Fri 04:29:45 PM 34.0953 -84.3269 191° South 443 510 38,000  Level FlightAware ADS-B (KDZJ)
Fri 04:30:25 PM 34.0136 -84.3459 191° South 442 509 38,000  Level FlightAware ADS-B (KDZJ)
Fri 04:31:06 PM 33.9318 -84.3650 191° South 442 509 38,000  Level FlightAware ADS-B (KDZJ)
Fri 04:32:22 PM 33.7750 -84.4011 191° South 449 517 38,000 -88 Level Atlanta Center
Fri 04:33:22 PM 33.6517 -84.4306 191° South 444 511 37,800 -350 Descending Atlanta Center
Fri 04:34:22 PM 33.5347 -84.4350 182° South 465 535 37,300 -400 Descending Atlanta Center
Fri 04:35:22 PM 33.3908 -84.4344 180° South 472 543 37,000 -150 Descending Atlanta Center
Fri 04:36:22 PM 33.2592 -84.4314 179° South 472 543 37,000  Level Atlanta Center
Fri 04:37:22 PM 33.1297 -84.4308 180° South 472 543 37,000  Level Atlanta Center
Fri 04:38:22 PM 33.0006 -84.4303 180° South 467 537 37,000  Level Atlanta Center
Fri 04:39:22 PM 32.8689 -84.4272 179° South 472 543 37,000  Level Atlanta Center
Fri 04:40:22 PM 32.7542 -84.4167 176° South 472 543 37,000  Level Atlanta Center
Fri 04:41:22 PM 32.6247 -84.4161 180° South 472 543 37,000  Level Atlanta Center
Fri 04:42:22 PM 32.4933 -84.4131 179° South 472 543 37,000  Level Atlanta Center
Fri 04:43:22 PM 32.3617 -84.4125 180° South 472 543 37,000  Level Atlanta Center
Fri 04:45:15 PM 32.1053 -84.4058 179° South 470 541 37,000  Level Jacksonville Center
Fri 04:46:15 PM 31.9758 -84.4014 178° South 470 541 37,000  Level Jacksonville Center
Fri 04:47:15 PM 31.8422 -84.4014 180° South 470 541 37,000  Level Jacksonville Center
Fri 04:52:40 PM 31.1204 -84.3849 179° South 476 548 37,000  Level FlightAware ADS-B (KONZ)
Fri 04:53:34 PM 31.0014 -84.3826 179° South 475 547 37,000  Level FlightAware ADS-B (KONZ)
Fri 04:54:19 PM 30.9024 -84.3807 179° South 475 547 37,000  Level FlightAware ADS-B (KONZ)
Fri 04:55:08 PM 30.7934 -84.3785 179° South 474 545 37,000  Level FlightAware ADS-B (KONZ)
Fri 04:55:39 PM 30.7301 -84.3771 178° South 475 547 37,000  Level FlightAware ADS-B (KONZ)
Fri 04:56:09 PM 30.6593 -84.3699 172° South 485 558 37,000  Level FlightAware ADS-B (KONZ)
Fri 04:56:39 PM 30.5930 -84.3558 167° South 494 568 37,000  Level FlightAware ADS-B (KONZ)
Fri 04:57:10 PM 30.5242 -84.3336 163° South 501 577 37,000  Level FlightAware ADS-B (KONZ)
Fri 04:57:56 PM 30.4230 -84.2849 154° Southeast 515 593 37,000  Level FlightAware ADS-B (KONZ)
Fri 04:58:27 PM 30.3597 -84.2445 150° Southeast 520 598 37,000  Level FlightAware ADS-B (KONZ)
Fri 04:59:09 PM 30.2748 -84.1893 151° Southeast 520 598 37,000  Level FlightAware ADS-B (KONZ)
Fri 04:59:40 PM 30.2131 -84.1491 151° Southeast 518 596 37,000  Level FlightAware ADS-B (KONZ)
Fri 05:00:10 PM 30.1466 -84.1058 151° Southeast 518 596 37,000  Level FlightAware ADS-B (KONZ)
Fri 05:00:40 PM 30.0823 -84.0639 151° Southeast 517 595 37,000  Level FlightAware ADS-B (KONZ)
Fri 05:01:16 PM 30.0067 -84.0148 151° Southeast 517 595 37,000  Level FlightAware ADS-B (KONZ)
Fri 05:01:53 PM 29.9279 -83.9637 151° Southeast 517 595 37,000  Level FlightAware ADS-B (KONZ)
Fri 05:03:15 PM 29.7639 -83.8592 151° Southeast 523 602 37,000  Level Jacksonville Center
Fri 05:04:15 PM 29.6392 -83.7792 151° Southeast 523 602 37,000  Level Jacksonville Center
Fri 05:05:15 PM 29.5144 -83.6992 151° Southeast 518 596 37,000  Level Jacksonville Center
Fri 05:06:15 PM 29.3875 -83.6194 151° Southeast 524 603 37,000  Level Jacksonville Center
Fri 05:07:15 PM 29.2628 -83.5378 150° Southeast 524 603 37,000  Level Jacksonville Center
Fri 05:08:15 PM 29.1381 -83.4583 151° Southeast 524 603 37,000  Level Jacksonville Center
Fri 05:13:57 PM 28.4199 -83.0032 151° Southeast 513 590 37,000  Level FlightAware ADS-B
Fri 05:15:35 PM 28.2157 -82.8756 151° Southeast 512 589 37,000  Level FlightAware ADS-B
Fri 05:17:25 PM 27.9967 -82.7394 151° Southeast 510 587 37,000  Level FlightAware ADS-B
Fri 05:19:08 PM 27.7770 -82.5973 149° Southeast 509 586 37,000  Level FlightAware ADS-B
Fri 05:19:48 PM 27.6967 -82.5433 149° Southeast 509 586 37,000  Level FlightAware ADS-B
Fri 05:20:35 PM 27.6007 -82.4794 149° Southeast 508 585 37,000  Level FlightAware ADS-B
Fri 05:21:41 PM 27.4647 -82.4065 171° South 479 551 37,000  Level FlightAware ADS-B
Fri 05:22:15 PM 27.3903 -82.4050 182° South 465 535 37,000  Level FlightAware ADS-B
Fri 05:22:51 PM 27.3131 -82.4077 182° South 470 541 37,000  Level FlightAware ADS-B
Fri 05:23:48 PM 27.1943 -82.4117 182° South 471 542 37,000  Level FlightAware ADS-B
Fri 05:24:40 PM 27.0740 -82.4158 182° South 471 542 37,000  Level FlightAware ADS-B
Fri 05:26:48 PM 26.8749 -82.4228 182° South 466 536 37,000  Level FlightAware ADS-B
Fri 05:27:58 PM 26.6483 -82.4306 182° South 464 534 37,000  Level FlightAware ADS-B
Fri 05:28:34 PM 26.5706 -82.4333 182° South 464 534 37,000  Level FlightAware ADS-B
Fri 05:29:08 PM 26.5009 -82.4357 182° South 465 535 37,000  Level FlightAware ADS-B
Fri 05:29:48 PM 26.4131 -82.4387 182° South 465 535 37,000  Level FlightAware ADS-B
Fri 05:30:38 PM 26.3257 -82.4416 182° South 465 535 37,000  Level FlightAware ADS-B
Fri 05:31:17 PM 26.2175 -82.4452 182° South 465 535 37,000  Level FlightAware ADS-B
Fri 05:31:47 PM 26.1540 -82.4474 182° South 466 536 37,000  Level FlightAware ADS-B
Fri 05:32:18 PM 26.0859 -82.4498 182° South 465 535 37,000  Level FlightAware ADS-B
Fri 05:32:55 PM 26.0069 -82.4525 182° South 464 534 37,000  Level FlightAware ADS-B
Fri 05:33:27 PM 25.9367 -82.4548 182° South 464 534 37,000  Level FlightAware ADS-B
Fri 05:33:57 PM 25.8839 -82.4565 182° South 463 533 37,000  Level FlightAware ADS-B
Fri 05:34:48 PM 25.7695 -82.4603 182° South 463 533 37,000  Level FlightAware ADS-B
Fri 05:35:48 PM 25.6347 -82.4648 182° South 464 534 37,000  Level FlightAware ADS-B
Fri 05:36:21 PM 25.5695 -82.4670 182° South 465 535 37,000 -173 Level FlightAware ADS-B
Fri 05:37:32 PM 25.4214 -82.4758 182° South 462 532 36,700 -550 Descending Miami Center
Fri 05:38:32 PM 25.2919 -82.4792 181° South 462 532 35,800 -1,000 Descending Miami Center
Fri 05:39:32 PM 25.1581 -82.4844 182° South 467 537 34,700 -1,250 Descending Miami Center
Fri 05:40:32 PM 25.0264 -82.4897 182° South 472 543 33,300 -1,200 Descending Miami Center
Fri 05:41:32 PM 24.8967 -82.4953 182° South 472 543 32,300 -1,000 Descending Miami Center
Fri 05:42:32 PM 24.7775 -82.4967 181° South 477 549 31,300 -1,000 Descending Miami Center
Fri 05:43:32 PM 24.6542 -82.5025 182° South 477 549 30,300 -1,000 Descending Miami Center
Fri 05:44:32 PM 24.5308 -82.5061 182° South 457 526 29,300 -1,250 Descending Miami Center
Fri 05:45:32 PM 24.4097 -82.5097 182° South 447 514 27,800 -1,600 Descending Miami Center
Fri 05:46:32 PM 24.2906 -82.5133 182° South 437 503 26,100 -1,650 Descending Miami Center
Fri 05:47:32 PM 24.1758 -82.5150 181° South 425 489 24,500 -1,600 Descending Miami Center
Fri 05:48:32 PM 24.0647 -82.5214 183° South 415 478 22,900 -1,600 Descending Miami Center
Fri 05:50:00 PM 23.8919 -82.5032 176° South  Level Estimated
Fri 05:57:00 PM 23.0635 -82.4000 180° South  Level FlightAware Approximate
Fri 05:58:00 PM 22.9891 -82.4091 180° South  Level Estimated
Fri 05:59:00 PM 22.9891 -82.4091 180° South  Level Estimated
Fri 06:00:00 PM 22.9891 -82.4091 180° South  Level Estimated
Fri 06:01:00 PM 22.9891 -82.4091 180° South  Level Estimated
Fri 06:02:00 PM 22.9891 -82.4091 180° South  Level Estimated
Fri 06:03:00 PM 22.9891 -82.4091 180° South  Level Estimated
Fri 06:04:00 PM 22.9891 -82.4091 180° South  Level Estimated
Fri 06:05:00 PM 22.9891 -82.4091 180° South  Level Estimated
Fri 06:06:00 PM 22.9891 -82.4091 180° South  Level Estimated
Fri 06:07:00 PM 22.9891 -82.4091 180° South  Level Estimated
Fri 06:08:00 PM 22.9891 -82.4091 180° South  Level Estimated
Fri 06:09:00 PM 22.9891 -82.4091 180° South  Level Estimated
Fri 06:10:00 PM 22.9891 -82.4091 180° South  Level Estimated
Fri 06:11:00 PM 22.9891 -82.4091 180° South  Level Estimated
Fri 06:12:00 PM 22.9891 -82.4091 180° South  Level Estimated
Fri 06:13:00 PM 22.9891 -82.4091 180° South  Level Estimated
Fri 06:14:00 PM 22.9891 -82.4091 180° South  Level Estimated
Fri 06:15:00 PM 22.9891 -82.4091 180° South  Level Estimated
Fri 06:16:00 PM 22.9891 -82.4091 180° South  Level Estimated
Fri 06:17:00 PM 22.9891 -82.4091 180° South  Level Estimated
Fri 06:18:00 PM 22.9891 -82.4091 180° South  Level Estimated
Fri 06:19:00 PM 22.9891 -82.4091 180° South  Level Estimated
Fri 06:20:00 PM 22.9891 -82.4091 180° South  Level Estimated

Login

Don't have an account? Register now (free) for customized features, flight alerts, and more!